sensor_id;sensor_type;location;lat;lon;timestamp;temperature;humidity
21666;DHT22;10994;45.486;9.190;2022-07-23T00:01:22;31.90;88.90
21666;DHT22;10994;45.486;9.190;2022-07-23T00:03:48;31.90;89.70
21666;DHT22;10994;45.486;9.190;2022-07-23T00:06:14;31.80;90.20
21666;DHT22;10994;45.486;9.190;2022-07-23T00:08:40;31.70;90.40
21666;DHT22;10994;45.486;9.190;2022-07-23T00:11:06;31.60;90.10
21666;DHT22;10994;45.486;9.190;2022-07-23T00:13:32;31.70;90.20
21666;DHT22;10994;45.486;9.190;2022-07-23T00:15:57;31.70;90.10
21666;DHT22;10994;45.486;9.190;2022-07-23T00:18:23;31.60;90.40
21666;DHT22;10994;45.486;9.190;2022-07-23T00:20:49;31.60;90.10
21666;DHT22;10994;45.486;9.190;2022-07-23T00:23:14;31.70;90.20
21666;DHT22;10994;45.486;9.190;2022-07-23T00:25:40;31.70;90.50
21666;DHT22;10994;45.486;9.190;2022-07-23T00:28:06;31.70;89.50
21666;DHT22;10994;45.486;9.190;2022-07-23T00:30:32;31.60;89.30
21666;DHT22;10994;45.486;9.190;2022-07-23T00:33:03;31.50;90.10
21666;DHT22;10994;45.486;9.190;2022-07-23T00:35:38;31.50;90.30
21666;DHT22;10994;45.486;9.190;2022-07-23T00:38:07;31.50;90.00
21666;DHT22;10994;45.486;9.190;2022-07-23T00:40:35;31.40;90.10
21666;DHT22;10994;45.486;9.190;2022-07-23T00:43:01;31.50;90.00
21666;DHT22;10994;45.486;9.190;2022-07-23T00:45:28;31.50;89.90
21666;DHT22;10994;45.486;9.190;2022-07-23T00:47:54;31.50;89.70
21666;DHT22;10994;45.486;9.190;2022-07-23T00:50:20;31.50;89.20
21666;DHT22;10994;45.486;9.190;2022-07-23T00:52:46;31.60;90.10
21666;DHT22;10994;45.486;9.190;2022-07-23T00:55:12;31.50;90.00
21666;DHT22;10994;45.486;9.190;2022-07-23T00:57:39;31.50;90.20
21666;DHT22;10994;45.486;9.190;2022-07-23T01:00:08;31.50;90.00
21666;DHT22;10994;45.486;9.190;2022-07-23T01:02:34;31.60;89.60
21666;DHT22;10994;45.486;9.190;2022-07-23T01:05:00;31.60;90.10
21666;DHT22;10994;45.486;9.190;2022-07-23T01:07:26;31.50;90.60
21666;DHT22;10994;45.486;9.190;2022-07-23T01:09:52;31.50;90.40
21666;DHT22;10994;45.486;9.190;2022-07-23T01:12:18;31.50;90.20
21666;DHT22;10994;45.486;9.190;2022-07-23T01:14:44;31.60;90.10
21666;DHT22;10994;45.486;9.190;2022-07-23T01:17:10;31.60;89.60
21666;DHT22;10994;45.486;9.190;2022-07-23T01:19:36;31.60;90.10
21666;DHT22;10994;45.486;9.190;2022-07-23T01:22:03;31.60;89.80
21666;DHT22;10994;45.486;9.190;2022-07-23T01:24:30;31.70;90.20
21666;DHT22;10994;45.486;9.190;2022-07-23T01:27:02;31.60;90.50
21666;DHT22;10994;45.486;9.190;2022-07-23T01:29:30;31.50;90.00
21666;DHT22;10994;45.486;9.190;2022-07-23T01:31:59;31.50;90.20
21666;DHT22;10994;45.486;9.190;2022-07-23T01:34:25;31.50;89.90
21666;DHT22;10994;45.486;9.190;2022-07-23T01:36:51;31.60;89.50
21666;DHT22;10994;45.486;9.190;2022-07-23T01:39:17;31.70;89.20
21666;DHT22;10994;45.486;9.190;2022-07-23T01:41:43;31.70;89.50
21666;DHT22;10994;45.486;9.190;2022-07-23T01:44:09;31.80;89.00
21666;DHT22;10994;45.486;9.190;2022-07-23T01:46:38;31.80;89.10
21666;DHT22;10994;45.486;9.190;2022-07-23T01:49:04;31.80;89.00
21666;DHT22;10994;45.486;9.190;2022-07-23T01:52:08;31.80;89.20
21666;DHT22;10994;45.486;9.190;2022-07-23T01:54:48;31.60;90.50
21666;DHT22;10994;45.486;9.190;2022-07-23T01:57:14;31.50;90.30
21666;DHT22;10994;45.486;9.190;2022-07-23T01:59:40;31.40;90.20
21666;DHT22;10994;45.486;9.190;2022-07-23T02:02:06;31.40;90.40
21666;DHT22;10994;45.486;9.190;2022-07-23T02:04:32;31.30;90.60
21666;DHT22;10994;45.486;9.190;2022-07-23T02:07:02;31.30;90.60
21666;DHT22;10994;45.486;9.190;2022-07-23T02:09:28;31.30;90.50
21666;DHT22;10994;45.486;9.190;2022-07-23T02:11:54;31.30;90.60
21666;DHT22;10994;45.486;9.190;2022-07-23T02:14:20;31.30;90.60
21666;DHT22;10994;45.486;9.190;2022-07-23T02:16:45;31.30;90.60
21666;DHT22;10994;45.486;9.190;2022-07-23T02:19:11;31.20;91.50
21666;DHT22;10994;45.486;9.190;2022-07-23T02:21:37;31.20;90.70
21666;DHT22;10994;45.486;9.190;2022-07-23T02:24:03;31.30;90.70
21666;DHT22;10994;45.486;9.190;2022-07-23T02:26:29;31.30;90.70
21666;DHT22;10994;45.486;9.190;2022-07-23T02:28:56;31.30;90.60
21666;DHT22;10994;45.486;9.190;2022-07-23T02:31:21;31.30;90.60
21666;DHT22;10994;45.486;9.190;2022-07-23T02:33:47;31.30;90.60
21666;DHT22;10994;45.486;9.190;2022-07-23T02:36:15;31.30;90.60
21666;DHT22;10994;45.486;9.190;2022-07-23T02:38:41;31.30;90.60
21666;DHT22;10994;45.486;9.190;2022-07-23T02:41:06;31.30;90.70
21666;DHT22;10994;45.486;9.190;2022-07-23T02:43:32;31.30;90.70
21666;DHT22;10994;45.486;9.190;2022-07-23T02:45:58;31.30;91.00
21666;DHT22;10994;45.486;9.190;2022-07-23T02:48:24;31.20;91.00
21666;DHT22;10994;45.486;9.190;2022-07-23T02:50:49;31.20;91.00
21666;DHT22;10994;45.486;9.190;2022-07-23T02:53:22;31.30;91.00
21666;DHT22;10994;45.486;9.190;2022-07-23T02:55:48;31.30;90.90
21666;DHT22;10994;45.486;9.190;2022-07-23T02:58:13;31.40;91.10
21666;DHT22;10994;45.486;9.190;2022-07-23T03:00:39;31.40;90.80
21666;DHT22;10994;45.486;9.190;2022-07-23T03:03:05;31.40;90.80
21666;DHT22;10994;45.486;9.190;2022-07-23T03:05:32;31.30;90.90
21666;DHT22;10994;45.486;9.190;2022-07-23T03:07:57;31.30;91.10
21666;DHT22;10994;45.486;9.190;2022-07-23T03:10:23;31.20;91.00
21666;DHT22;10994;45.486;9.190;2022-07-23T03:12:49;31.20;91.10
21666;DHT22;10994;45.486;9.190;2022-07-23T03:15:15;31.20;90.90
21666;DHT22;10994;45.486;9.190;2022-07-23T03:17:40;31.30;90.80
21666;DHT22;10994;45.486;9.190;2022-07-23T03:20:07;31.30;90.70
21666;DHT22;10994;45.486;9.190;2022-07-23T03:22:33;31.30;90.90
21666;DHT22;10994;45.486;9.190;2022-07-23T03:24:58;31.20;90.90
21666;DHT22;10994;45.486;9.190;2022-07-23T03:27:32;31.20;91.10
21666;DHT22;10994;45.486;9.190;2022-07-23T03:29:59;31.20;91.10
21666;DHT22;10994;45.486;9.190;2022-07-23T03:32:25;31.20;91.20
21666;DHT22;10994;45.486;9.190;2022-07-23T03:34:52;31.20;91.30
21666;DHT22;10994;45.486;9.190;2022-07-23T03:37:18;31.20;91.40
21666;DHT22;10994;45.486;9.190;2022-07-23T03:39:45;31.10;91.70
21666;DHT22;10994;45.486;9.190;2022-07-23T03:42:11;31.10;91.70
21666;DHT22;10994;45.486;9.190;2022-07-23T03:44:37;31.00;91.80
21666;DHT22;10994;45.486;9.190;2022-07-23T03:47:04;31.00;91.80
21666;DHT22;10994;45.486;9.190;2022-07-23T03:49:30;31.00;92.20
21666;DHT22;10994;45.486;9.190;2022-07-23T03:51:55;31.00;91.90
21666;DHT22;10994;45.486;9.190;2022-07-23T03:54:21;31.00;91.90
21666;DHT22;10994;45.486;9.190;2022-07-23T03:56:47;31.00;91.90
21666;DHT22;10994;45.486;9.190;2022-07-23T03:59:13;31.00;91.90
21666;DHT22;10994;45.486;9.190;2022-07-23T04:01:38;31.10;91.60
21666;DHT22;10994;45.486;9.190;2022-07-23T04:04:04;31.10;91.70
21666;DHT22;10994;45.486;9.190;2022-07-23T04:06:31;31.10;91.60
21666;DHT22;10994;45.486;9.190;2022-07-23T04:08:58;31.00;92.00
21666;DHT22;10994;45.486;9.190;2022-07-23T04:11:24;30.90;92.20
21666;DHT22;10994;45.486;9.190;2022-07-23T04:13:50;30.80;92.30
21666;DHT22;10994;45.486;9.190;2022-07-23T04:16:16;30.80;92.60
21666;DHT22;10994;45.486;9.190;2022-07-23T04:18:42;30.70;92.70
21666;DHT22;10994;45.486;9.190;2022-07-23T04:21:16;30.60;93.20
21666;DHT22;10994;45.486;9.190;2022-07-23T04:23:43;30.60;92.80
21666;DHT22;10994;45.486;9.190;2022-07-23T04:26:12;30.60;92.60
21666;DHT22;10994;45.486;9.190;2022-07-23T04:28:39;30.60;92.80
21666;DHT22;10994;45.486;9.190;2022-07-23T04:31:05;30.60;92.80
21666;DHT22;10994;45.486;9.190;2022-07-23T04:33:31;30.60;92.70
21666;DHT22;10994;45.486;9.190;2022-07-23T04:36:00;30.60;92.80
21666;DHT22;10994;45.486;9.190;2022-07-23T04:38:26;30.50;93.50
21666;DHT22;10994;45.486;9.190;2022-07-23T04:41:02;30.50;92.90
21666;DHT22;10994;45.486;9.190;2022-07-23T04:43:27;30.60;92.90
21666;DHT22;10994;45.486;9.190;2022-07-23T04:45:54;30.60;93.80
21666;DHT22;10994;45.486;9.190;2022-07-23T04:48:20;30.50;93.90
21666;DHT22;10994;45.486;9.190;2022-07-23T04:50:48;30.50;93.90
21666;DHT22;10994;45.486;9.190;2022-07-23T04:53:31;30.50;93.70
21666;DHT22;10994;45.486;9.190;2022-07-23T04:56:00;30.40;93.80
21666;DHT22;10994;45.486;9.190;2022-07-23T04:58:25;30.40;93.60
21666;DHT22;10994;45.486;9.190;2022-07-23T05:00:51;30.40;93.90
21666;DHT22;10994;45.486;9.190;2022-07-23T05:03:17;30.40;94.30
21666;DHT22;10994;45.486;9.190;2022-07-23T05:05:45;30.40;94.00
21666;DHT22;10994;45.486;9.190;2022-07-23T05:08:14;30.40;94.60
21666;DHT22;10994;45.486;9.190;2022-07-23T05:10:42;30.40;94.00
21666;DHT22;10994;45.486;9.190;2022-07-23T05:13:08;30.30;94.50
21666;DHT22;10994;45.486;9.190;2022-07-23T05:15:34;30.20;94.90
21666;DHT22;10994;45.486;9.190;2022-07-23T05:18:01;30.10;94.50
21666;DHT22;10994;45.486;9.190;2022-07-23T05:20:27;30.00;94.30
21666;DHT22;10994;45.486;9.190;2022-07-23T05:22:53;30.00;94.00
21666;DHT22;10994;45.486;9.190;2022-07-23T05:25:19;30.10;93.90
21666;DHT22;10994;45.486;9.190;2022-07-23T05:27:45;30.20;93.90
21666;DHT22;10994;45.486;9.190;2022-07-23T05:30:11;30.30;94.40
21666;DHT22;10994;45.486;9.190;2022-07-23T05:32:41;30.00;94.60
21666;DHT22;10994;45.486;9.190;2022-07-23T05:35:12;30.10;94.00
21666;DHT22;10994;45.486;9.190;2022-07-23T05:37:41;30.10;94.50
21666;DHT22;10994;45.486;9.190;2022-07-23T05:40:09;30.10;93.90
21666;DHT22;10994;45.486;9.190;2022-07-23T05:42:37;30.10;94.10
21666;DHT22;10994;45.486;9.190;2022-07-23T05:45:04;30.20;93.80
21666;DHT22;10994;45.486;9.190;2022-07-23T05:47:48;30.10;94.20
21666;DHT22;10994;45.486;9.190;2022-07-23T05:50:23;30.00;94.60
21666;DHT22;10994;45.486;9.190;2022-07-23T05:52:55;30.00;94.00
21666;DHT22;10994;45.486;9.190;2022-07-23T05:55:36;30.00;94.10
21666;DHT22;10994;45.486;9.190;2022-07-23T05:58:01;29.80;94.90
21666;DHT22;10994;45.486;9.190;2022-07-23T06:00:28;29.70;94.90
21666;DHT22;10994;45.486;9.190;2022-07-23T06:02:54;29.80;94.60
21666;DHT22;10994;45.486;9.190;2022-07-23T06:05:20;29.80;94.40
21666;DHT22;10994;45.486;9.190;2022-07-23T06:07:46;29.90;94.10
21666;DHT22;10994;45.486;9.190;2022-07-23T06:10:13;29.90;93.80
21666;DHT22;10994;45.486;9.190;2022-07-23T06:12:42;30.00;93.80
21666;DHT22;10994;45.486;9.190;2022-07-23T06:15:08;29.90;93.80
21666;DHT22;10994;45.486;9.190;2022-07-23T06:17:34;29.90;93.60
21666;DHT22;10994;45.486;9.190;2022-07-23T06:20:00;30.00;93.30
21666;DHT22;10994;45.486;9.190;2022-07-23T06:22:25;30.10;93.30
21666;DHT22;10994;45.486;9.190;2022-07-23T06:24:51;30.20;93.20
21666;DHT22;10994;45.486;9.190;2022-07-23T06:27:19;30.30;93.10
21666;DHT22;10994;45.486;9.190;2022-07-23T06:29:45;30.40;93.30
21666;DHT22;10994;45.486;9.190;2022-07-23T06:32:11;30.30;93.30
21666;DHT22;10994;45.486;9.190;2022-07-23T06:34:36;30.50;93.00
21666;DHT22;10994;45.486;9.190;2022-07-23T06:37:02;30.70;92.90
21666;DHT22;10994;45.486;9.190;2022-07-23T06:39:28;30.90;92.60
21666;DHT22;10994;45.486;9.190;2022-07-23T06:41:54;31.10;92.30
21666;DHT22;10994;45.486;9.190;2022-07-23T06:44:34;31.30;92.10
21666;DHT22;10994;45.486;9.190;2022-07-23T06:46:59;31.40;91.90
21666;DHT22;10994;45.486;9.190;2022-07-23T06:49:25;31.40;91.90
21666;DHT22;10994;45.486;9.190;2022-07-23T06:51:51;31.40;91.90
21666;DHT22;10994;45.486;9.190;2022-07-23T06:54:16;31.60;91.80
21666;DHT22;10994;45.486;9.190;2022-07-23T06:56:42;31.80;91.60
21666;DHT22;10994;45.486;9.190;2022-07-23T06:59:09;31.90;91.60
21666;DHT22;10994;45.486;9.190;2022-07-23T07:01:35;32.00;91.80
21666;DHT22;10994;45.486;9.190;2022-07-23T07:04:01;31.80;92.30
21666;DHT22;10994;45.486;9.190;2022-07-23T07:06:27;31.80;91.90
21666;DHT22;10994;45.486;9.190;2022-07-23T07:08:52;31.80;91.90
21666;DHT22;10994;45.486;9.190;2022-07-23T07:11:18;31.60;92.00
21666;DHT22;10994;45.486;9.190;2022-07-23T07:13:44;31.70;92.20
21666;DHT22;10994;45.486;9.190;2022-07-23T07:16:09;31.70;92.30
21666;DHT22;10994;45.486;9.190;2022-07-23T07:18:35;31.70;92.30
21666;DHT22;10994;45.486;9.190;2022-07-23T07:21:01;31.70;92.30
21666;DHT22;10994;45.486;9.190;2022-07-23T07:23:26;31.90;92.20
21666;DHT22;10994;45.486;9.190;2022-07-23T07:25:52;32.00;92.00
21666;DHT22;10994;45.486;9.190;2022-07-23T07:28:18;32.40;91.80
21666;DHT22;10994;45.486;9.190;2022-07-23T07:30:43;32.50;91.50
21666;DHT22;10994;45.486;9.190;2022-07-23T07:33:09;32.60;91.80
21666;DHT22;10994;45.486;9.190;2022-07-23T07:35:35;32.50;93.20
21666;DHT22;10994;45.486;9.190;2022-07-23T07:38:01;32.30;93.40
21666;DHT22;10994;45.486;9.190;2022-07-23T07:40:29;32.50;93.50
21666;DHT22;10994;45.486;9.190;2022-07-23T07:42:55;32.40;93.40
21666;DHT22;10994;45.486;9.190;2022-07-23T07:45:23;32.40;93.80
21666;DHT22;10994;45.486;9.190;2022-07-23T07:47:51;32.30;93.80
21666;DHT22;10994;45.486;9.190;2022-07-23T07:50:18;32.30;93.80
21666;DHT22;10994;45.486;9.190;2022-07-23T07:52:44;32.30;93.60
21666;DHT22;10994;45.486;9.190;2022-07-23T07:55:10;32.50;93.20
21666;DHT22;10994;45.486;9.190;2022-07-23T07:57:37;32.70;93.00
21666;DHT22;10994;45.486;9.190;2022-07-23T08:00:04;32.60;93.10
21666;DHT22;10994;45.486;9.190;2022-07-23T08:02:44;32.40;93.60
21666;DHT22;10994;45.486;9.190;2022-07-23T08:05:11;32.40;93.70
21666;DHT22;10994;45.486;9.190;2022-07-23T08:07:37;32.20;94.00
21666;DHT22;10994;45.486;9.190;2022-07-23T08:10:05;32.40;93.70
21666;DHT22;10994;45.486;9.190;2022-07-23T08:12:44;32.50;94.20
21666;DHT22;10994;45.486;9.190;2022-07-23T08:15:11;32.40;94.10
21666;DHT22;10994;45.486;9.190;2022-07-23T08:17:37;32.40;94.10
21666;DHT22;10994;45.486;9.190;2022-07-23T08:20:07;32.50;94.40
21666;DHT22;10994;45.486;9.190;2022-07-23T08:22:43;32.40;95.00
21666;DHT22;10994;45.486;9.190;2022-07-23T08:25:09;32.30;95.90
21666;DHT22;10994;45.486;9.190;2022-07-23T08:27:35;32.30;97.60
21666;DHT22;10994;45.486;9.190;2022-07-23T08:30:01;32.30;97.30
21666;DHT22;10994;45.486;9.190;2022-07-23T08:32:27;32.50;97.70
21666;DHT22;10994;45.486;9.190;2022-07-23T08:34:53;32.50;98.10
21666;DHT22;10994;45.486;9.190;2022-07-23T08:37:18;32.30;98.70
21666;DHT22;10994;45.486;9.190;2022-07-23T08:39:44;32.50;98.60
21666;DHT22;10994;45.486;9.190;2022-07-23T08:42:12;32.70;98.80
21666;DHT22;10994;45.486;9.190;2022-07-23T08:44:39;32.70;98.80
21666;DHT22;10994;45.486;9.190;2022-07-23T08:47:07;32.70;99.10
21666;DHT22;10994;45.486;9.190;2022-07-23T08:49:34;32.50;99.90
21666;DHT22;10994;45.486;9.190;2022-07-23T08:52:00;32.40;99.90
21666;DHT22;10994;45.486;9.190;2022-07-23T08:54:26;32.30;99.90
21666;DHT22;10994;45.486;9.190;2022-07-23T08:56:52;32.50;99.90
21666;DHT22;10994;45.486;9.190;2022-07-23T08:59:17;32.60;99.90
21666;DHT22;10994;45.486;9.190;2022-07-23T09:01:43;32.60;99.90
21666;DHT22;10994;45.486;9.190;2022-07-23T09:04:09;32.30;99.90
21666;DHT22;10994;45.486;9.190;2022-07-23T09:06:39;32.30;99.90
21666;DHT22;10994;45.486;9.190;2022-07-23T09:09:21;32.10;99.90
21666;DHT22;10994;45.486;9.190;2022-07-23T09:11:48;32.40;99.90
21666;DHT22;10994;45.486;9.190;2022-07-23T09:14:45;32.70;99.90
21666;DHT22;10994;45.486;9.190;2022-07-23T09:17:17;32.60;99.90
21666;DHT22;10994;45.486;9.190;2022-07-23T09:19:45;32.90;99.90
21666;DHT22;10994;45.486;9.190;2022-07-23T09:25:09;33.00;99.90
21666;DHT22;10994;45.486;9.190;2022-07-23T09:27:58;33.10;99.90
21666;DHT22;10994;45.486;9.190;2022-07-23T09:30:29;33.30;99.90
21666;DHT22;10994;45.486;9.190;2022-07-23T09:33:13;33.30;99.90
21666;DHT22;10994;45.486;9.190;2022-07-23T09:35:55;33.10;99.90
21666;DHT22;10994;45.486;9.190;2022-07-23T09:38:23;33.20;99.90
21666;DHT22;10994;45.486;9.190;2022-07-23T09:41:09;33.50;99.90
21666;DHT22;10994;45.486;9.190;2022-07-23T09:43:38;33.70;99.90
21666;DHT22;10994;45.486;9.190;2022-07-23T09:46:24;33.70;99.90
21666;DHT22;10994;45.486;9.190;2022-07-23T09:48:51;33.80;99.90
21666;DHT22;10994;45.486;9.190;2022-07-23T09:51:18;33.80;99.90
21666;DHT22;10994;45.486;9.190;2022-07-23T09:53:57;33.70;99.90
21666;DHT22;10994;45.486;9.190;2022-07-23T09:56:23;33.80;99.90
21666;DHT22;10994;45.486;9.190;2022-07-23T09:58:50;33.90;99.90
21666;DHT22;10994;45.486;9.190;2022-07-23T10:01:17;34.10;99.90
21666;DHT22;10994;45.486;9.190;2022-07-23T10:03:46;33.90;99.90
21666;DHT22;10994;45.486;9.190;2022-07-23T10:06:39;33.70;99.90
21666;DHT22;10994;45.486;9.190;2022-07-23T10:09:28;33.30;99.90
21666;DHT22;10994;45.486;9.190;2022-07-23T10:12:14;33.40;99.90
21666;DHT22;10994;45.486;9.190;2022-07-23T10:15:01;33.70;99.90
21666;DHT22;10994;45.486;9.190;2022-07-23T10:17:30;33.90;99.90
21666;DHT22;10994;45.486;9.190;2022-07-23T10:19:56;33.80;99.90
21666;DHT22;10994;45.486;9.190;2022-07-23T10:36:40;33.90;99.90
21666;DHT22;10994;45.486;9.190;2022-07-23T10:39:14;34.20;99.90
21666;DHT22;10994;45.486;9.190;2022-07-23T10:41:43;34.20;99.90
21666;DHT22;10994;45.486;9.190;2022-07-23T10:44:20;34.40;99.90
21666;DHT22;10994;45.486;9.190;2022-07-23T10:49:43;34.70;99.90
21666;DHT22;10994;45.486;9.190;2022-07-23T10:54:45;34.90;99.90
21666;DHT22;10994;45.486;9.190;2022-07-23T10:57:12;35.00;99.90
21666;DHT22;10994;45.486;9.190;2022-07-23T11:02:26;35.20;99.90
21666;DHT22;10994;45.486;9.190;2022-07-23T11:04:53;35.10;99.90
21666;DHT22;10994;45.486;9.190;2022-07-23T11:07:19;35.00;99.90
21666;DHT22;10994;45.486;9.190;2022-07-23T11:09:45;35.00;99.90
21666;DHT22;10994;45.486;9.190;2022-07-23T11:15:10;35.00;99.90
21666;DHT22;10994;45.486;9.190;2022-07-23T11:17:37;34.70;99.90
21666;DHT22;10994;45.486;9.190;2022-07-23T11:25:29;35.00;99.90
21666;DHT22;10994;45.486;9.190;2022-07-23T11:28:11;35.00;99.90
21666;DHT22;10994;45.486;9.190;2022-07-23T11:30:42;34.80;99.90
21666;DHT22;10994;45.486;9.190;2022-07-23T11:35:35;34.70;99.90
21666;DHT22;10994;45.486;9.190;2022-07-23T11:38:19;34.60;99.90
21666;DHT22;10994;45.486;9.190;2022-07-23T11:40:48;34.70;99.90
21666;DHT22;10994;45.486;9.190;2022-07-23T11:43:15;35.00;99.90
21666;DHT22;10994;45.486;9.190;2022-07-23T11:45:51;35.10;99.90
21666;DHT22;10994;45.486;9.190;2022-07-23T11:48:22;35.10;99.90
21666;DHT22;10994;45.486;9.190;2022-07-23T11:50:50;35.10;99.90
21666;DHT22;10994;45.486;9.190;2022-07-23T11:53:24;35.30;99.90
21666;DHT22;10994;45.486;9.190;2022-07-23T11:55:50;35.60;99.90
21666;DHT22;10994;45.486;9.190;2022-07-23T11:58:16;35.70;99.90
21666;DHT22;10994;45.486;9.190;2022-07-23T12:00:42;35.40;99.90
21666;DHT22;10994;45.486;9.190;2022-07-23T12:03:08;35.40;99.90
21666;DHT22;10994;45.486;9.190;2022-07-23T12:05:35;35.50;99.90
21666;DHT22;10994;45.486;9.190;2022-07-23T12:08:04;35.70;99.90
21666;DHT22;10994;45.486;9.190;2022-07-23T12:10:35;35.80;99.90
21666;DHT22;10994;45.486;9.190;2022-07-23T12:13:07;36.00;99.90
21666;DHT22;10994;45.486;9.190;2022-07-23T12:15:43;36.00;99.90
21666;DHT22;10994;45.486;9.190;2022-07-23T12:18:11;36.00;99.90
21666;DHT22;10994;45.486;9.190;2022-07-23T12:20:43;36.10;99.90
21666;DHT22;10994;45.486;9.190;2022-07-23T12:23:11;35.90;99.90
21666;DHT22;10994;45.486;9.190;2022-07-23T12:25:41;35.80;99.90
21666;DHT22;10994;45.486;9.190;2022-07-23T12:33:13;35.80;99.90
21666;DHT22;10994;45.486;9.190;2022-07-23T12:35:43;35.60;99.90
21666;DHT22;10994;45.486;9.190;2022-07-23T12:38:19;35.80;99.90
21666;DHT22;10994;45.486;9.190;2022-07-23T12:40:47;35.80;99.90
21666;DHT22;10994;45.486;9.190;2022-07-23T12:43:31;35.60;99.90
21666;DHT22;10994;45.486;9.190;2022-07-23T12:51:09;35.80;99.90
21666;DHT22;10994;45.486;9.190;2022-07-23T12:53:51;36.20;99.90
21666;DHT22;10994;45.486;9.190;2022-07-23T12:56:29;36.50;99.90
21666;DHT22;10994;45.486;9.190;2022-07-23T12:59:05;36.00;99.90
21666;DHT22;10994;45.486;9.190;2022-07-23T13:01:34;35.70;99.90
21666;DHT22;10994;45.486;9.190;2022-07-23T13:04:07;35.90;99.90
21666;DHT22;10994;45.486;9.190;2022-07-23T13:06:56;35.90;99.90
21666;DHT22;10994;45.486;9.190;2022-07-23T13:09:25;35.60;99.90
21666;DHT22;10994;45.486;9.190;2022-07-23T13:11:53;35.50;99.90
21666;DHT22;10994;45.486;9.190;2022-07-23T13:14:20;35.30;99.90
21666;DHT22;10994;45.486;9.190;2022-07-23T13:16:47;35.30;99.90
21666;DHT22;10994;45.486;9.190;2022-07-23T13:19:13;35.60;99.90
21666;DHT22;10994;45.486;9.190;2022-07-23T13:21:40;35.70;99.90
21666;DHT22;10994;45.486;9.190;2022-07-23T13:24:07;35.80;99.90
21666;DHT22;10994;45.486;9.190;2022-07-23T13:26:33;36.10;99.90
21666;DHT22;10994;45.486;9.190;2022-07-23T13:28:59;36.40;99.90
21666;DHT22;10994;45.486;9.190;2022-07-23T13:31:25;36.50;99.90
21666;DHT22;10994;45.486;9.190;2022-07-23T13:33:50;36.50;99.90
21666;DHT22;10994;45.486;9.190;2022-07-23T13:36:16;36.30;99.90
21666;DHT22;10994;45.486;9.190;2022-07-23T13:38:42;36.00;99.90
21666;DHT22;10994;45.486;9.190;2022-07-23T13:41:08;36.00;99.90
21666;DHT22;10994;45.486;9.190;2022-07-23T13:43:34;36.10;99.90
21666;DHT22;10994;45.486;9.190;2022-07-23T13:46:00;36.00;99.90
21666;DHT22;10994;45.486;9.190;2022-07-23T13:48:26;35.70;99.90
21666;DHT22;10994;45.486;9.190;2022-07-23T13:50:51;35.80;99.90
21666;DHT22;10994;45.486;9.190;2022-07-23T13:53:20;35.60;99.90
21666;DHT22;10994;45.486;9.190;2022-07-23T13:55:47;35.60;99.90
21666;DHT22;10994;45.486;9.190;2022-07-23T13:58:14;35.70;99.90
21666;DHT22;10994;45.486;9.190;2022-07-23T14:00:43;35.80;99.90
21666;DHT22;10994;45.486;9.190;2022-07-23T14:03:09;35.70;99.90
21666;DHT22;10994;45.486;9.190;2022-07-23T14:05:35;35.60;99.90
21666;DHT22;10994;45.486;9.190;2022-07-23T14:08:02;35.80;99.90
21666;DHT22;10994;45.486;9.190;2022-07-23T14:10:28;35.80;99.90
21666;DHT22;10994;45.486;9.190;2022-07-23T14:12:53;35.90;99.90
21666;DHT22;10994;45.486;9.190;2022-07-23T14:15:24;35.90;99.90
21666;DHT22;10994;45.486;9.190;2022-07-23T14:17:52;36.10;99.90
21666;DHT22;10994;45.486;9.190;2022-07-23T14:20:18;36.20;99.90
21666;DHT22;10994;45.486;9.190;2022-07-23T14:22:44;36.20;99.90
21666;DHT22;10994;45.486;9.190;2022-07-23T14:25:10;36.30;99.90
21666;DHT22;10994;45.486;9.190;2022-07-23T14:27:36;36.20;99.90
21666;DHT22;10994;45.486;9.190;2022-07-23T14:30:04;36.20;99.90
21666;DHT22;10994;45.486;9.190;2022-07-23T14:32:30;36.20;99.90
21666;DHT22;10994;45.486;9.190;2022-07-23T14:34:56;35.70;99.90
21666;DHT22;10994;45.486;9.190;2022-07-23T14:37:22;35.80;99.90
21666;DHT22;10994;45.486;9.190;2022-07-23T14:39:47;35.80;99.90
21666;DHT22;10994;45.486;9.190;2022-07-23T14:42:13;35.50;99.90
21666;DHT22;10994;45.486;9.190;2022-07-23T14:44:39;35.60;99.90
21666;DHT22;10994;45.486;9.190;2022-07-23T14:47:05;36.00;99.90
21666;DHT22;10994;45.486;9.190;2022-07-23T14:49:32;36.10;99.90
21666;DHT22;10994;45.486;9.190;2022-07-23T14:51:57;36.10;99.90
21666;DHT22;10994;45.486;9.190;2022-07-23T14:54:24;36.10;99.90
21666;DHT22;10994;45.486;9.190;2022-07-23T14:56:52;36.30;99.90
21666;DHT22;10994;45.486;9.190;2022-07-23T14:59:18;36.30;99.90
21666;DHT22;10994;45.486;9.190;2022-07-23T15:01:44;36.40;99.90
21666;DHT22;10994;45.486;9.190;2022-07-23T15:04:10;36.50;99.90
21666;DHT22;10994;45.486;9.190;2022-07-23T15:06:36;36.00;99.80
21666;DHT22;10994;45.486;9.190;2022-07-23T15:09:02;35.80;99.40
21666;DHT22;10994;45.486;9.190;2022-07-23T15:11:28;35.90;99.90
21666;DHT22;10994;45.486;9.190;2022-07-23T15:13:57;35.80;99.90
21666;DHT22;10994;45.486;9.190;2022-07-23T15:16:23;35.90;99.90
21666;DHT22;10994;45.486;9.190;2022-07-23T15:18:49;36.10;99.90
21666;DHT22;10994;45.486;9.190;2022-07-23T15:21:15;36.20;99.90
21666;DHT22;10994;45.486;9.190;2022-07-23T15:23:40;36.30;99.90
21666;DHT22;10994;45.486;9.190;2022-07-23T15:26:07;36.00;99.90
21666;DHT22;10994;45.486;9.190;2022-07-23T15:28:34;36.10;99.90
21666;DHT22;10994;45.486;9.190;2022-07-23T15:30:59;36.10;99.90
21666;DHT22;10994;45.486;9.190;2022-07-23T15:33:25;35.90;99.90
21666;DHT22;10994;45.486;9.190;2022-07-23T15:35:51;35.80;99.90
21666;DHT22;10994;45.486;9.190;2022-07-23T15:38:18;35.80;99.90
21666;DHT22;10994;45.486;9.190;2022-07-23T15:40:44;35.80;99.90
21666;DHT22;10994;45.486;9.190;2022-07-23T15:43:09;35.70;99.90
21666;DHT22;10994;45.486;9.190;2022-07-23T15:45:35;35.70;99.90
21666;DHT22;10994;45.486;9.190;2022-07-23T15:48:01;35.70;99.90
21666;DHT22;10994;45.486;9.190;2022-07-23T15:50:27;35.70;99.90
21666;DHT22;10994;45.486;9.190;2022-07-23T15:52:53;35.60;99.90
21666;DHT22;10994;45.486;9.190;2022-07-23T15:55:18;35.60;99.90
21666;DHT22;10994;45.486;9.190;2022-07-23T15:57:44;35.70;99.90
21666;DHT22;10994;45.486;9.190;2022-07-23T16:00:10;35.60;99.90
21666;DHT22;10994;45.486;9.190;2022-07-23T16:02:36;35.70;99.90
21666;DHT22;10994;45.486;9.190;2022-07-23T16:05:02;35.70;99.90
21666;DHT22;10994;45.486;9.190;2022-07-23T16:07:28;35.80;99.90
21666;DHT22;10994;45.486;9.190;2022-07-23T16:09:54;35.80;99.90
21666;DHT22;10994;45.486;9.190;2022-07-23T16:12:20;35.80;99.90
21666;DHT22;10994;45.486;9.190;2022-07-23T16:14:46;35.90;99.90
21666;DHT22;10994;45.486;9.190;2022-07-23T16:17:12;35.90;99.90
21666;DHT22;10994;45.486;9.190;2022-07-23T16:19:37;35.80;99.90
21666;DHT22;10994;45.486;9.190;2022-07-23T16:22:03;35.80;99.90